Westwego, LA (70094)

2:31 PM CST on December 04, 2016 (GMT -0600)
Gordon Ave. | | Change Station

Elev 20 ft 29.94 °N, 90.20 °W | Updated 4 seconds ago

Light Rain
Light Rain Mist
65.3 °F
Feels Like 65.3 °F
N
0.0
Wind Variable Wind from North
Gusts 0.0 mph

Today
High -- | Low -- °F
--% Chance of Precip.
Yesterday
High -- | Low -- °F
Precip. -- in
Pressure 29.90 in
Visibility 2.5 miles
Clouds Mostly Cloudy 400 ft
Mostly Cloudy 4800 ft
Overcast 5500 ft
Dew Point 63 °F
Humidity 89%
Rainfall 0.00 in
Snow Depth Not available.
6:41 AM 5:00 PM
Waxing Crescent, 25% visible
METAR KMSY 041953Z 33010KT 2 1/2SM -RA BR BKN004 BKN048 OVC055 17/17 A2989 RMK AO2 RAB33 SLP125 P0000 T01720172
Pressure 29.90 in
Visibility 2.5 miles
Clouds Mostly Cloudy 400 ft
Mostly Cloudy 4800 ft
Overcast 5500 ft
Dew Point 63 °F
Humidity 89%
Rainfall 0.00 in
Snow Depth Not available.
6:41 AM 5:00 PM
Waxing Crescent, 25% visible
METAR KMSY 041953Z 33010KT 2 1/2SM -RA BR BKN004 BKN048 OVC055 17/17 A2989 RMK AO2 RAB33 SLP125 P0000 T01720172

10-Day Weather Forecast

Almanac

Astronomy

Dec. 04, 2016 Rise Set
Actual Time
Civil Twilight
Nautical Twilight
Astronomical Twilight
Moon
Length of Visible Light
Length of Day
Tomorrow will be .
, % of the Moon is Illuminated

Today's Extremes

State Highs State Lows

Community

WunderPhotos

Upload Photos

1,955,667 photos uploaded!

WunderBlog® & News

Nearby

Air Quality

  Air Quality AQ Index Pollutant
Not available.

Snow Depth

Station Depth Elevation

Earthquake Activity

City Distance Mag. Time & Date
Minimum magnitude displayed is 2.5.

Coastal Water Temperatures

Place Temperature

Stations

Nearby Weather Stations

Station Location Temp. Windchill Dew Point Humidity Wind Precip. Elev Updated Type
                   

Watches & Warnings

There are currently no watches in effect.